createdAt,value
2023-05-23T00:04:17.334Z,15.60
2023-05-23T00:09:19.730Z,15.60
2023-05-23T00:14:21.723Z,15.50
2023-05-23T00:19:23.633Z,15.50
2023-05-23T00:24:25.902Z,15.40
2023-05-23T00:29:27.746Z,15.40
2023-05-23T00:34:29.554Z,15.50
2023-05-23T00:39:31.652Z,15.40
2023-05-23T00:44:36.239Z,15.50
2023-05-23T00:49:38.082Z,15.50
2023-05-23T00:54:40.151Z,15.40
2023-05-23T00:59:43.463Z,15.50
2023-05-23T01:04:45.308Z,15.40
2023-05-23T01:09:47.547Z,15.40
2023-05-23T01:15:06.711Z,15.40
2023-05-23T01:20:12.901Z,15.40
2023-05-23T01:25:42.573Z,15.40
2023-05-23T01:30:47.048Z,15.40
2023-05-23T01:35:49.537Z,15.40
2023-05-23T01:40:51.478Z,15.50
2023-05-23T01:45:57.456Z,15.50
2023-05-23T01:50:59.560Z,15.40
2023-05-23T01:56:03.553Z,15.50
2023-05-23T02:01:05.572Z,15.40
2023-05-23T02:06:07.827Z,15.40
2023-05-23T02:11:10.689Z,15.40
2023-05-23T02:16:14.046Z,15.40
2023-05-23T02:21:15.878Z,15.40
2023-05-23T02:26:18.246Z,15.40
2023-05-23T02:31:20.137Z,15.40
2023-05-23T02:36:21.957Z,15.40
2023-05-23T02:41:23.774Z,15.40
2023-05-23T02:46:26.096Z,15.40
2023-05-23T02:51:27.969Z,15.30
2023-05-23T02:56:29.825Z,15.30
2023-05-23T03:01:31.725Z,15.30
2023-05-23T03:06:36.893Z,15.10
2023-05-23T03:11:38.894Z,15.20
2023-05-23T03:16:40.867Z,15.10
2023-05-23T03:21:44.297Z,15.10
2023-05-23T03:26:46.115Z,15.00
2023-05-23T03:31:47.933Z,15.00
2023-05-23T03:36:50.076Z,15.00
2023-05-23T03:41:51.945Z,15.00
2023-05-23T03:46:53.868Z,14.90
2023-05-23T03:51:55.880Z,14.80
2023-05-23T03:56:57.798Z,14.90
2023-05-23T04:02:01.222Z,14.80
2023-05-23T04:07:03.229Z,14.80
2023-05-23T04:12:06.111Z,14.70
2023-05-23T04:17:09.134Z,14.60
2023-05-23T04:22:10.981Z,14.60
2023-05-23T04:27:13.742Z,14.60
2023-05-23T04:32:19.485Z,14.70
2023-05-23T04:37:26.204Z,14.80
2023-05-23T04:42:29.367Z,14.80
2023-05-23T04:47:37.025Z,14.90
2023-05-23T04:52:39.134Z,14.90
2023-05-23T04:57:41.081Z,14.90
2023-05-23T05:02:43.685Z,14.90
2023-05-23T05:07:45.583Z,14.90
2023-05-23T05:12:49.642Z,14.90
2023-05-23T05:17:51.512Z,14.90
2023-05-23T05:22:58.046Z,14.90
2023-05-23T05:28:06.054Z,14.90
2023-05-23T05:33:08.172Z,14.90
2023-05-23T05:38:11.124Z,15.00
2023-05-23T05:43:12.993Z,15.00
2023-05-23T05:48:14.839Z,15.00
2023-05-23T05:53:17.036Z,15.00
2023-05-23T05:58:19.219Z,15.00
2023-05-23T06:03:21.381Z,15.10
2023-05-23T06:08:23.443Z,15.00
2023-05-23T06:13:25.566Z,15.00
2023-05-23T06:18:27.409Z,14.90
2023-05-23T06:23:29.258Z,14.80
2023-05-23T06:28:31.056Z,14.80
2023-05-23T06:33:36.485Z,14.70
2023-05-23T06:38:38.317Z,14.60
2023-05-23T06:43:40.204Z,14.70
2023-05-23T06:48:42.106Z,14.70
2023-05-23T06:53:44.040Z,14.80
2023-05-23T06:58:47.172Z,14.80
2023-05-23T07:03:49.135Z,14.90
2023-05-23T07:08:51.032Z,15.20
2023-05-23T07:13:52.837Z,15.50
2023-05-23T07:18:54.702Z,15.30
2023-05-23T07:23:56.516Z,15.30
2023-05-23T07:28:58.944Z,15.20
2023-05-23T07:34:01.092Z,15.20
2023-05-23T07:39:02.995Z,15.40
2023-05-23T07:44:04.904Z,15.20
2023-05-23T07:49:06.742Z,15.30
2023-05-23T07:54:08.639Z,15.20
2023-05-23T07:59:10.510Z,15.30
2023-05-23T08:04:12.618Z,15.20
2023-05-23T08:09:14.549Z,15.20
2023-05-23T08:14:16.403Z,15.10
2023-05-23T08:19:18.247Z,15.10
2023-05-23T08:24:21.601Z,15.20
2023-05-23T08:29:23.436Z,15.20
2023-05-23T08:34:25.305Z,15.20
2023-05-23T08:39:27.188Z,15.40
2023-05-23T08:44:29.013Z,16.20
2023-05-23T08:49:31.824Z,16.30
2023-05-23T08:54:34.221Z,16.50
2023-05-23T08:59:37.470Z,16.50
2023-05-23T09:04:39.300Z,16.20
2023-05-23T09:09:41.704Z,16.00
2023-05-23T09:14:44.873Z,16.10
2023-05-23T09:19:49.596Z,16.20
2023-05-23T09:24:53.116Z,16.50
2023-05-23T09:29:55.030Z,16.60
2023-05-23T09:35:04.807Z,16.70
2023-05-23T09:40:11.844Z,16.40
2023-05-23T09:45:15.587Z,16.40
2023-05-23T09:50:17.679Z,16.10
2023-05-23T09:55:19.883Z,16.10
2023-05-23T10:00:23.419Z,16.30
2023-05-23T10:05:31.609Z,16.20
2023-05-23T10:10:34.041Z,16.00
2023-05-23T10:15:40.174Z,16.00
2023-05-23T10:20:47.644Z,16.20
2023-05-23T10:25:51.023Z,16.10
2023-05-23T10:30:53.059Z,16.20
2023-05-23T10:36:05.119Z,16.50
2023-05-23T10:41:20.155Z,16.40
2023-05-23T10:46:22.785Z,16.20
2023-05-23T10:51:25.024Z,16.50
2023-05-23T10:56:31.927Z,16.90
2023-05-23T11:01:39.555Z,17.70
2023-05-23T11:06:44.289Z,17.80
2023-05-23T11:11:57.437Z,18.00
2023-05-23T11:17:20.466Z,18.60
2023-05-23T11:22:27.238Z,17.90
2023-05-23T11:27:38.125Z,17.90
2023-05-23T11:32:40.706Z,18.70
2023-05-23T11:37:44.272Z,18.80
2023-05-23T11:42:46.172Z,18.60
2023-05-23T11:47:48.070Z,18.30
2023-05-23T11:52:53.838Z,18.30
2023-05-23T11:57:57.265Z,18.80
2023-05-23T12:02:59.247Z,18.30
2023-05-23T12:08:01.349Z,18.60
2023-05-23T12:13:04.979Z,19.10
2023-05-23T12:18:08.655Z,19.10
2023-05-23T12:23:19.443Z,19.10
2023-05-23T12:28:43.600Z,18.70
2023-05-23T12:33:48.740Z,19.80
2023-05-23T12:38:51.486Z,19.40
2023-05-23T12:43:57.265Z,20.00
2023-05-23T12:48:59.537Z,20.10
2023-05-23T12:54:02.071Z,19.30
2023-05-23T12:59:04.289Z,20.10
2023-05-23T13:04:06.296Z,20.50
2023-05-23T13:09:08.185Z,19.70
2023-05-23T13:14:10.004Z,19.60
2023-05-23T13:19:12.334Z,20.40
2023-05-23T13:24:14.162Z,20.70
2023-05-23T13:29:16.216Z,20.40
2023-05-23T13:34:18.052Z,20.30
2023-05-23T13:39:22.782Z,20.40
2023-05-23T13:44:24.670Z,20.20
2023-05-23T13:49:26.552Z,20.40
2023-05-23T13:54:28.406Z,20.60
2023-05-23T13:59:30.615Z,19.80
2023-05-23T14:04:33.264Z,20.00
2023-05-23T14:09:35.154Z,19.60
2023-05-23T14:14:37.222Z,19.80
2023-05-23T14:19:39.117Z,19.80
2023-05-23T14:24:41.124Z,20.60
2023-05-23T14:29:46.443Z,21.10
2023-05-23T14:34:48.381Z,22.00
2023-05-23T14:39:50.370Z,22.50
2023-05-23T14:44:55.890Z,23.10
2023-05-23T14:49:57.761Z,23.40
2023-05-23T14:55:01.075Z,24.00
2023-05-23T15:00:05.747Z,22.90
2023-05-23T15:05:07.939Z,22.80
2023-05-23T15:10:10.022Z,24.10
2023-05-23T15:15:12.041Z,23.50
2023-05-23T15:20:13.928Z,21.80
2023-05-23T15:25:15.952Z,21.20
2023-05-23T15:30:17.781Z,21.50
2023-05-23T15:35:20.308Z,22.70
2023-05-23T15:40:22.207Z,22.60
2023-05-23T15:45:24.053Z,22.70
2023-05-23T15:50:25.870Z,22.00
2023-05-23T15:55:27.699Z,22.10
2023-05-23T16:00:29.557Z,22.10
2023-05-23T16:05:31.453Z,21.90
2023-05-23T16:10:33.714Z,21.50
2023-05-23T16:15:35.820Z,21.60
2023-05-23T16:20:37.717Z,22.60
2023-05-23T16:25:39.728Z,22.30
2023-05-23T16:30:41.700Z,21.90
2023-05-23T16:35:43.714Z,22.40
2023-05-23T16:40:45.652Z,21.80
2023-05-23T16:45:47.739Z,22.80
2023-05-23T16:50:49.858Z,23.00
2023-05-23T16:55:51.911Z,22.90
2023-05-23T17:00:53.775Z,21.80
2023-05-23T17:05:55.988Z,21.80
2023-05-23T17:10:57.821Z,22.10
2023-05-23T17:15:59.676Z,22.10
2023-05-23T17:21:01.633Z,22.20
2023-05-23T17:26:03.484Z,21.50
2023-05-23T17:31:05.640Z,21.50
2023-05-23T17:36:07.621Z,21.80
2023-05-23T17:41:09.498Z,21.40
2023-05-23T17:46:11.487Z,21.40
2023-05-23T17:51:13.427Z,20.60
2023-05-23T17:56:15.734Z,20.20
2023-05-23T18:01:17.695Z,19.70
2023-05-23T18:06:19.535Z,19.80
2023-05-23T18:11:22.189Z,19.40
2023-05-23T18:16:24.016Z,19.20
2023-05-23T18:21:26.975Z,18.80
2023-05-23T18:26:29.019Z,18.70
2023-05-23T18:31:30.810Z,18.40
2023-05-23T18:36:33.057Z,18.40
2023-05-23T18:41:34.882Z,18.20
2023-05-23T18:46:36.925Z,18.00
2023-05-23T18:51:38.945Z,17.90
2023-05-23T18:56:40.837Z,17.60
2023-05-23T19:01:42.883Z,17.70
2023-05-23T19:06:45.716Z,17.40
2023-05-23T19:11:47.718Z,17.10
2023-05-23T19:16:49.740Z,16.70
2023-05-23T19:21:51.674Z,16.80
2023-05-23T19:26:53.843Z,16.80
2023-05-23T19:31:55.799Z,16.70
2023-05-23T19:36:58.017Z,16.40
2023-05-23T19:41:59.906Z,16.40
2023-05-23T19:47:01.719Z,16.30
2023-05-23T19:52:03.768Z,16.10
2023-05-23T19:57:06.148Z,16.00
2023-05-23T20:02:08.077Z,15.90
2023-05-23T20:07:09.991Z,15.80
2023-05-23T20:12:11.922Z,15.70
2023-05-23T20:17:13.790Z,15.70
2023-05-23T20:22:16.039Z,15.50
2023-05-23T20:27:17.897Z,15.50
2023-05-23T20:32:19.772Z,15.20
2023-05-23T20:37:21.812Z,15.20
2023-05-23T20:42:24.700Z,15.20
2023-05-23T20:47:26.639Z,15.00
2023-05-23T20:52:30.005Z,15.00
2023-05-23T20:57:32.498Z,14.90
2023-05-23T21:02:34.437Z,14.70
2023-05-23T21:07:36.640Z,14.70
2023-05-23T21:12:38.817Z,14.80
2023-05-23T21:17:40.632Z,14.70
2023-05-23T21:22:42.503Z,14.50
2023-05-23T21:27:44.413Z,14.40
2023-05-23T21:32:46.466Z,14.30
2023-05-23T21:37:48.355Z,14.10
2023-05-23T21:42:50.164Z,14.10
2023-05-23T21:47:52.199Z,14.00
2023-05-23T21:52:54.203Z,13.60
2023-05-23T21:57:56.023Z,13.50
2023-05-23T22:02:58.006Z,13.40
2023-05-23T22:07:59.904Z,13.40
2023-05-23T22:13:01.733Z,13.50
2023-05-23T22:18:04.336Z,13.50
2023-05-23T22:23:07.467Z,13.40
2023-05-23T22:28:09.273Z,13.40
2023-05-23T22:33:13.250Z,13.30
2023-05-23T22:38:15.144Z,13.20
2023-05-23T22:43:17.479Z,13.20
2023-05-23T22:48:19.454Z,13.00
2023-05-23T22:53:22.766Z,12.90
2023-05-23T22:58:24.991Z,13.00
2023-05-23T23:03:26.974Z,13.00
2023-05-23T23:08:28.835Z,12.40
2023-05-23T23:13:30.873Z,12.30
2023-05-23T23:18:32.693Z,12.40
2023-05-23T23:23:36.606Z,12.30
2023-05-23T23:28:38.995Z,12.50
2023-05-23T23:33:40.907Z,12.30
2023-05-23T23:38:42.700Z,12.10
2023-05-23T23:43:44.786Z,12.10
2023-05-23T23:48:46.587Z,11.80
2023-05-23T23:53:50.906Z,11.90
2023-05-23T23:58:54.402Z,11.90
